createdAt,value
2018-03-23T00:01:45.946Z,2.20
2018-03-23T00:04:13.538Z,1.80
2018-03-23T00:06:41.091Z,2.03
2018-03-23T00:09:09.410Z,1.93
2018-03-23T00:11:37.152Z,2.47
2018-03-23T00:14:04.706Z,2.60
2018-03-23T00:16:32.256Z,2.30
2018-03-23T00:18:59.849Z,2.70
2018-03-23T00:21:27.412Z,2.93
2018-03-23T00:23:54.972Z,3.93
2018-03-23T00:26:22.553Z,2.40
2018-03-23T00:28:50.106Z,1.90
2018-03-23T00:31:17.645Z,2.37
2018-03-23T00:33:45.514Z,3.20
2018-03-23T00:36:13.072Z,2.00
2018-03-23T00:38:40.612Z,2.67
2018-03-23T00:41:08.189Z,1.33
2018-03-23T00:43:35.727Z,1.50
2018-03-23T00:46:03.356Z,1.47
2018-03-23T00:48:30.926Z,1.47
2018-03-23T00:50:58.460Z,1.37
2018-03-23T00:53:25.993Z,5.90
2018-03-23T00:55:53.696Z,1.30
2018-03-23T00:58:21.242Z,1.17
2018-03-23T01:00:48.791Z,1.00
2018-03-23T01:03:16.427Z,1.00
2018-03-23T01:05:43.983Z,2.03
2018-03-23T01:08:11.539Z,0.90
2018-03-23T01:10:39.139Z,1.07
2018-03-23T01:13:06.680Z,1.37
2018-03-23T01:15:34.229Z,1.10
2018-03-23T01:18:01.899Z,1.00
2018-03-23T01:20:29.488Z,0.97
2018-03-23T01:22:57.022Z,0.90
2018-03-23T01:25:24.725Z,0.77
2018-03-23T01:27:52.268Z,0.80
2018-03-23T01:30:19.801Z,2.37
2018-03-23T01:32:47.675Z,0.70
2018-03-23T01:35:15.219Z,0.90
2018-03-23T01:37:42.762Z,1.07
2018-03-23T01:40:10.485Z,0.93
2018-03-23T01:42:38.035Z,0.93
2018-03-23T01:45:05.594Z,1.10
2018-03-23T01:47:33.350Z,1.50
2018-03-23T01:50:00.899Z,1.43
2018-03-23T01:52:28.449Z,0.83
2018-03-23T01:54:56.031Z,1.63
2018-03-23T01:57:29.211Z,0.97
2018-03-23T01:59:56.764Z,0.97
2018-03-23T02:02:24.348Z,1.13
2018-03-23T02:04:51.887Z,1.33
2018-03-23T02:07:19.440Z,2.07
2018-03-23T02:09:47.967Z,1.90
2018-03-23T02:12:15.528Z,2.27
2018-03-23T02:14:43.069Z,2.23
2018-03-23T02:17:10.654Z,1.90
2018-03-23T02:19:39.168Z,2.67
2018-03-23T02:22:07.646Z,2.60
2018-03-23T02:24:35.508Z,2.87
2018-03-23T02:27:03.047Z,3.10
2018-03-23T02:29:31.576Z,2.30
2018-03-23T02:31:59.134Z,2.57
2018-03-23T02:34:26.680Z,3.27
2018-03-23T02:36:55.376Z,2.10
2018-03-23T02:39:22.921Z,2.50
2018-03-23T02:41:50.461Z,2.93
2018-03-23T02:44:18.057Z,2.50
2018-03-23T02:46:45.593Z,2.60
2018-03-23T02:49:13.144Z,2.60
2018-03-23T02:51:40.869Z,2.83
2018-03-23T02:54:08.403Z,3.00
2018-03-23T02:56:35.947Z,2.17
2018-03-23T02:59:04.466Z,2.60
2018-03-23T03:01:32.014Z,1.70
2018-03-23T03:03:59.586Z,2.23
2018-03-23T03:06:27.152Z,2.37
2018-03-23T03:08:54.688Z,2.10
2018-03-23T03:11:22.233Z,1.80
2018-03-23T03:13:49.810Z,2.00
2018-03-23T03:16:17.355Z,1.57
2018-03-23T03:18:44.902Z,2.03
2018-03-23T03:21:12.482Z,2.20
2018-03-23T03:23:40.025Z,2.47
2018-03-23T03:26:07.562Z,2.27
2018-03-23T03:28:35.245Z,2.30
2018-03-23T03:31:02.794Z,1.87
2018-03-23T03:33:31.017Z,1.90
2018-03-23T03:35:58.601Z,2.27
2018-03-23T03:38:26.145Z,2.63
2018-03-23T03:43:27.811Z,3.07
2018-03-23T03:45:55.370Z,3.63
2018-03-23T03:48:23.853Z,4.20
2018-03-23T03:50:52.617Z,3.30
2018-03-23T03:53:20.157Z,3.87
2018-03-23T03:55:47.694Z,2.83
2018-03-23T03:58:15.406Z,3.63
2018-03-23T04:17:58.052Z,3.10
2018-03-23T04:20:25.591Z,4.57
2018-03-23T04:22:53.130Z,4.00
2018-03-23T04:25:20.846Z,3.53
2018-03-23T04:27:48.416Z,3.80
2018-03-23T04:30:15.966Z,4.13
2018-03-23T04:32:43.528Z,4.83
2018-03-23T04:35:11.066Z,5.20
2018-03-23T04:37:39.559Z,5.67
2018-03-23T04:40:07.323Z,3.60
2018-03-23T04:42:34.910Z,3.53
2018-03-23T04:45:02.451Z,3.63
2018-03-23T04:47:30.018Z,4.77
2018-03-23T04:49:57.594Z,6.20
2018-03-23T04:52:25.129Z,4.33
2018-03-23T04:54:52.717Z,5.53
2018-03-23T04:57:20.274Z,20.93
2018-03-23T04:59:47.824Z,6.37
2018-03-23T05:02:15.576Z,8.83
2018-03-23T05:04:43.131Z,6.37
2018-03-23T05:07:10.667Z,7.03
2018-03-23T05:09:38.348Z,9.40
2018-03-23T05:12:05.943Z,25.23
2018-03-23T05:14:33.489Z,7.87
2018-03-23T05:17:01.203Z,5.60
2018-03-23T05:19:28.744Z,5.27
2018-03-23T05:21:56.526Z,10.37
2018-03-23T05:24:24.131Z,5.10
2018-03-23T05:26:52.569Z,13.80
2018-03-23T05:29:20.116Z,14.10
2018-03-23T05:31:47.662Z,14.13
2018-03-23T05:34:15.214Z,14.27
2018-03-23T05:36:42.785Z,13.57
2018-03-23T05:39:10.334Z,19.47
2018-03-23T05:41:38.813Z,16.00
2018-03-23T05:44:06.507Z,23.17
2018-03-23T05:46:34.087Z,18.80
2018-03-23T05:49:01.660Z,13.50
2018-03-23T05:51:29.390Z,16.90
2018-03-23T05:53:56.933Z,17.03
2018-03-23T05:56:24.476Z,14.50
2018-03-23T05:58:52.163Z,22.53
2018-03-23T06:01:19.699Z,18.97
2018-03-23T06:03:47.258Z,18.03
2018-03-23T06:06:14.959Z,20.90
2018-03-23T06:08:42.542Z,21.77
2018-03-23T06:11:10.105Z,16.97
2018-03-23T06:13:37.737Z,15.17
2018-03-23T06:16:05.281Z,18.07
2018-03-23T06:18:32.827Z,16.70
2018-03-23T06:21:00.436Z,19.07
2018-03-23T06:23:27.995Z,17.83
2018-03-23T06:25:55.547Z,21.27
2018-03-23T06:28:23.243Z,28.27
2018-03-23T06:30:50.787Z,19.70
2018-03-23T06:33:18.369Z,14.87
2018-03-23T06:35:46.135Z,20.87
2018-03-23T06:38:13.671Z,23.17
2018-03-23T06:40:41.213Z,16.90
2018-03-23T06:43:09.088Z,94.20
2018-03-23T06:45:36.642Z,136.27
2018-03-23T06:48:04.204Z,107.73
2018-03-23T06:50:31.784Z,50.90
2018-03-23T06:52:59.351Z,34.00
2018-03-23T06:55:26.902Z,26.00
2018-03-23T06:57:54.507Z,25.43
2018-03-23T07:00:23.093Z,35.70
2018-03-23T07:02:50.637Z,55.03
2018-03-23T07:05:18.238Z,32.77
2018-03-23T07:07:45.804Z,55.50
2018-03-23T07:10:13.356Z,48.00
2018-03-23T07:12:40.945Z,27.57
2018-03-23T07:15:08.524Z,21.33
2018-03-23T07:17:36.069Z,30.10
2018-03-23T07:20:03.682Z,28.30
2018-03-23T07:22:31.224Z,23.97
2018-03-23T07:24:58.790Z,31.23
2018-03-23T07:27:26.431Z,36.47
2018-03-23T07:29:53.946Z,36.47
2018-03-23T07:32:21.505Z,32.10
2018-03-23T07:34:49.089Z,32.90
2018-03-23T07:37:17.574Z,35.20
2018-03-23T07:39:46.142Z,36.07
2018-03-23T07:42:14.032Z,26.87
2018-03-23T07:44:41.623Z,27.40
2018-03-23T07:47:09.166Z,25.73
2018-03-23T07:49:36.891Z,35.30
2018-03-23T07:52:05.422Z,29.30
2018-03-23T07:54:32.960Z,60.33
2018-03-23T07:57:00.551Z,30.50
2018-03-23T07:59:28.098Z,30.30
2018-03-23T08:01:55.639Z,32.47
2018-03-23T08:04:23.309Z,29.93
2018-03-23T08:06:50.857Z,32.37
2018-03-23T08:09:18.416Z,36.50
2018-03-23T08:11:45.993Z,43.37
2018-03-23T08:14:13.537Z,52.53
2018-03-23T08:16:41.077Z,40.77
2018-03-23T08:19:09.743Z,38.00
2018-03-23T08:21:37.305Z,38.50
2018-03-23T08:24:04.854Z,30.63
2018-03-23T08:26:32.581Z,31.57
2018-03-23T08:29:01.070Z,30.00
2018-03-23T08:31:28.614Z,35.63
2018-03-23T08:33:56.514Z,32.17
2018-03-23T08:36:24.105Z,35.73
2018-03-23T08:38:51.657Z,26.73
2018-03-23T08:41:19.256Z,32.20
2018-03-23T08:43:46.824Z,37.33
2018-03-23T08:46:14.362Z,39.17
2018-03-23T08:48:42.049Z,27.20
2018-03-23T08:51:09.617Z,28.93
2018-03-23T08:53:37.163Z,36.40
2018-03-23T08:56:04.759Z,27.10
2018-03-23T08:58:33.301Z,23.73
2018-03-23T09:01:07.967Z,36.33
2018-03-23T09:03:35.532Z,39.37
